Time;durP1;ratioP1;P1;durP2;ratioP2;P2;SDS_P1;SDS_P2;PMS_P1;PMS_P2;Temp;Humidity;BMP_temperature;BMP_pressure;BME280_temperature;BME280_humidity;BME280_pressure;Samples;Min_cycle;Max_cycle;Signal;HPM_P1;HPM_P2
2021/05/17 00:02:16;;;;;;;12.02;7.45;;;10.00;92.70;;;;;;5072770;28;20033;-53
2021/05/17 00:04:42;;;;;;;11.52;7.65;;;10.00;92.80;;;;;;5071124;28;20052;-49
2021/05/17 00:07:09;;;;;;;10.57;6.90;;;9.90;92.90;;;;;;5064936;28;20040;-49
2021/05/17 00:09:35;;;;;;;12.63;7.00;;;9.90;92.80;;;;;;5070107;28;20044;-49
2021/05/17 00:12:02;;;;;;;13.85;7.05;;;9.90;93.10;;;;;;5072677;28;20051;-49
2021/05/17 00:14:29;;;;;;;12.68;7.25;;;9.90;92.80;;;;;;5068185;28;20197;-49
2021/05/17 00:16:56;;;;;;;14.85;7.65;;;9.90;92.80;;;;;;5054544;28;20098;-52
2021/05/17 00:19:23;;;;;;;12.55;8.13;;;9.80;92.80;;;;;;5069687;28;20055;-51
2021/05/17 00:21:51;;;;;;;12.95;7.63;;;9.80;92.80;;;;;;5052732;28;20077;-52
2021/05/17 00:24:18;;;;;;;12.07;8.13;;;9.80;92.80;;;;;;5036687;28;20477;-52
2021/05/17 00:26:44;;;;;;;16.13;8.50;;;9.80;92.80;;;;;;5072143;28;20147;-50
2021/05/17 00:29:10;;;;;;;15.10;8.00;;;9.80;92.80;;;;;;5073818;28;20139;-50
2021/05/17 00:31:42;;;;;;;18.58;8.93;;;9.70;92.80;;;;;;5071640;28;20052;-49
2021/05/17 00:34:09;;;;;;;13.48;8.45;;;9.70;92.80;;;;;;5066782;28;20044;-50
2021/05/17 00:36:37;;;;;;;13.85;8.27;;;9.80;93.00;;;;;;5063578;28;20037;-54
2021/05/17 00:39:07;;;;;;;13.30;8.98;;;9.70;92.80;;;;;;5068504;28;20048;-49
2021/05/17 00:41:33;;;;;;;13.55;8.45;;;9.70;92.90;;;;;;5077061;28;20032;-49
2021/05/17 00:43:58;;;;;;;14.65;9.40;;;9.70;92.90;;;;;;5053111;28;20374;-52
2021/05/17 00:46:25;;;;;;;16.67;9.05;;;9.70;92.80;;;;;;5077813;28;20068;-49
2021/05/17 00:48:52;;;;;;;13.00;8.77;;;9.70;92.90;;;;;;5073099;28;21651;-51
2021/05/17 00:51:22;;;;;;;16.92;9.40;;;9.70;93.00;;;;;;5058157;28;20120;-51
2021/05/17 00:53:47;;;;;;;14.68;9.30;;;9.70;92.90;;;;;;5053785;28;20135;-54
2021/05/17 00:56:13;;;;;;;15.27;8.80;;;9.70;92.90;;;;;;5069793;28;20040;-49
2021/05/17 00:58:40;;;;;;;17.05;9.57;;;9.70;92.90;;;;;;5071398;28;20408;-53
2021/05/17 01:01:07;;;;;;;16.35;9.43;;;9.70;93.00;;;;;;5054391;28;20048;-53
2021/05/17 01:03:33;;;;;;;15.10;9.48;;;9.70;93.00;;;;;;5073674;28;20032;-49
2021/05/17 01:06:01;;;;;;;16.48;9.43;;;9.70;93.00;;;;;;5071366;28;20419;-52
2021/05/17 01:09:03;;;;;;;17.67;10.27;;;9.70;93.10;;;;;;5071872;28;20040;-50
2021/05/17 01:11:30;;;;;;;14.55;10.10;;;9.70;93.10;;;;;;5070986;28;20048;-51
2021/05/17 01:14:02;;;;;;;17.38;9.48;;;9.70;93.20;;;;;;5067554;28;20045;-49
2021/05/17 01:16:28;;;;;;;15.32;10.05;;;9.70;93.20;;;;;;5063362;28;20174;-49
2021/05/17 01:18:54;;;;;;;13.95;9.38;;;9.70;93.20;;;;;;5082376;28;20062;-54
2021/05/17 01:21:23;;;;;;;14.85;9.75;;;9.70;93.20;;;;;;5064619;28;20052;-52
2021/05/17 01:23:55;;;;;;;15.13;9.95;;;9.70;93.20;;;;;;5085761;28;20044;-51
2021/05/17 01:26:22;;;;;;;15.52;10.18;;;9.70;93.20;;;;;;5076902;28;20036;-54
2021/05/17 01:28:49;;;;;;;17.25;10.55;;;9.70;93.30;;;;;;5091187;28;20052;-50
2021/05/17 01:31:16;;;;;;;16.55;10.00;;;9.70;93.30;;;;;;5058456;28;20119;-54
2021/05/17 01:33:45;;;;;;;15.40;9.45;;;9.70;93.30;;;;;;5066067;28;20063;-56
2021/05/17 01:36:13;;;;;;;16.38;9.30;;;9.70;93.30;;;;;;5074380;28;20040;-49
2021/05/17 01:38:45;;;;;;;15.05;10.02;;;9.60;93.30;;;;;;5071168;28;20046;-50
2021/05/17 01:41:13;;;;;;;16.00;9.93;;;9.70;93.30;;;;;;5070351;28;20050;-49
2021/05/17 01:43:41;;;;;;;18.70;9.85;;;9.70;93.40;;;;;;5070038;28;20043;-50
2021/05/17 01:46:14;;;;;;;14.07;9.57;;;9.70;93.40;;;;;;5074440;28;20044;-50
2021/05/17 01:48:42;;;;;;;16.85;10.05;;;9.70;93.50;;;;;;5078496;28;20151;-49
2021/05/17 01:51:15;;;;;;;16.23;9.80;;;9.70;93.40;;;;;;5044990;28;20044;-54
2021/05/17 01:53:42;;;;;;;12.85;9.73;;;9.70;93.40;;;;;;5072097;28;20306;-50
2021/05/17 01:56:08;;;;;;;17.45;10.55;;;9.70;93.40;;;;;;5083160;28;20119;-53
2021/05/17 01:58:38;;;;;;;19.30;10.68;;;9.70;93.40;;;;;;5074726;28;20047;-50
2021/05/17 02:01:10;;;;;;;17.25;10.02;;;9.80;93.40;;;;;;5046226;28;20041;-51
2021/05/17 02:03:37;;;;;;;15.50;9.23;;;9.70;93.40;;;;;;5073535;28;20076;-50
2021/05/17 02:06:05;;;;;;;15.43;9.50;;;9.70;93.40;;;;;;5074948;28;20098;-51
2021/05/17 02:08:31;;;;;;;18.98;10.35;;;9.70;93.30;;;;;;5072330;28;20557;-50
2021/05/17 02:10:58;;;;;;;14.40;10.10;;;9.70;93.40;;;;;;5073399;28;20140;-52
2021/05/17 02:13:26;;;;;;;17.40;10.65;;;9.70;93.40;;;;;;5072398;28;20040;-50
2021/05/17 02:15:52;;;;;;;21.35;10.65;;;9.80;93.40;;;;;;5079379;28;20139;-49
2021/05/17 02:18:18;;;;;;;15.77;10.05;;;9.80;93.50;;;;;;5075019;28;20122;-49
2021/05/17 02:20:46;;;;;;;14.57;10.68;;;9.80;93.40;;;;;;5041674;28;20036;-53
2021/05/17 02:23:14;;;;;;;15.40;10.48;;;9.80;93.40;;;;;;5075615;28;20064;-55
2021/05/17 02:25:48;;;;;;;18.02;10.77;;;9.80;93.40;;;;;;5084265;28;20033;-53
2021/05/17 02:28:15;;;;;;;17.45;10.50;;;9.80;93.50;;;;;;5075213;28;20105;-53
2021/05/17 02:30:41;;;;;;;19.65;10.18;;;9.80;93.50;;;;;;5076194;28;20489;-50
2021/05/17 02:33:09;;;;;;;15.93;11.05;;;9.80;93.40;;;;;;5073370;28;20464;-55
2021/05/17 02:35:37;;;;;;;20.90;10.63;;;9.80;93.50;;;;;;5055267;28;20485;-50
2021/05/17 02:38:03;;;;;;;15.77;10.48;;;9.80;93.60;;;;;;5070219;28;20148;-52
2021/05/17 02:40:30;;;;;;;17.17;10.65;;;9.80;93.50;;;;;;5071067;28;20513;-49
2021/05/17 02:43:06;;;;;;;15.63;10.98;;;9.80;93.50;;;;;;5073292;28;20408;-50
2021/05/17 02:45:33;;;;;;;17.67;11.25;;;9.80;93.60;;;;;;5081442;28;20061;-50
2021/05/17 02:48:01;;;;;;;19.60;10.77;;;9.80;93.60;;;;;;5073313;28;20056;-49
2021/05/17 02:50:39;;;;;;;15.52;10.50;;;9.80;93.60;;;;;;5073757;28;20033;-50
2021/05/17 02:53:27;;;;;;;17.23;10.90;;;9.80;93.60;;;;;;5069864;28;20135;-52
2021/05/17 02:55:57;;;;;;;17.33;10.98;;;9.80;93.60;;;;;;5072130;28;20043;-50
2021/05/17 02:58:24;;;;;;;16.80;11.45;;;9.80;93.60;;;;;;5081809;28;20040;-49
2021/05/17 03:01:00;;;;;;;16.73;10.75;;;9.80;93.60;;;;;;5075643;28;20123;-50
2021/05/17 03:03:26;;;;;;;16.65;11.15;;;9.80;93.60;;;;;;5062489;28;20135;-49
2021/05/17 03:06:02;;;;;;;17.08;11.38;;;9.80;93.60;;;;;;5076861;28;20036;-51
2021/05/17 03:08:33;;;;;;;17.08;11.65;;;9.80;93.60;;;;;;5040194;28;20154;-49
2021/05/17 03:10:59;;;;;;;18.98;11.02;;;9.80;93.70;;;;;;5069488;28;20059;-50
2021/05/17 03:13:27;;;;;;;17.75;11.95;;;9.80;93.60;;;;;;5073790;28;20036;-50
2021/05/17 03:15:54;;;;;;;20.50;12.30;;;9.70;93.70;;;;;;5053803;28;20060;-50
2021/05/17 03:18:24;;;;;;;19.98;12.38;;;9.80;93.70;;;;;;5078616;28;20047;-52
2021/05/17 03:20:50;;;;;;;17.50;12.40;;;9.80;93.60;;;;;;5057931;28;20498;-49
2021/05/17 03:23:16;;;;;;;17.90;11.20;;;9.80;93.70;;;;;;5066762;28;20524;-50
2021/05/17 03:25:44;;;;;;;20.40;11.98;;;9.70;93.70;;;;;;5064238;28;20057;-51
2021/05/17 03:28:10;;;;;;;17.02;12.13;;;9.80;94.00;;;;;;5071951;28;20090;-49
2021/05/17 03:30:36;;;;;;;18.70;12.85;;;9.70;93.70;;;;;;5054697;28;20044;-49
2021/05/17 03:33:02;;;;;;;18.80;12.82;;;9.70;93.80;;;;;;5060970;28;20049;-50
2021/05/17 03:35:29;;;;;;;20.33;13.48;;;9.70;93.90;;;;;;5074289;28;20101;-52
2021/05/17 03:37:57;;;;;;;20.05;12.13;;;9.80;93.90;;;;;;5045043;28;20049;-52
2021/05/17 03:40:23;;;;;;;19.55;12.70;;;9.80;93.90;;;;;;5071391;28;20037;-50
2021/05/17 03:42:48;;;;;;;18.50;12.23;;;9.70;93.90;;;;;;5079244;28;20044;-49
2021/05/17 03:45:15;;;;;;;18.65;12.68;;;9.80;94.00;;;;;;5069988;28;20036;-51
2021/05/17 03:47:41;;;;;;;21.73;12.57;;;9.80;94.00;;;;;;5060811;28;20048;-51
2021/05/17 03:50:09;;;;;;;20.38;12.73;;;9.80;94.10;;;;;;5075081;28;20514;-49
2021/05/17 03:52:35;;;;;;;19.65;12.52;;;9.80;94.10;;;;;;5072237;28;20562;-50
2021/05/17 03:55:01;;;;;;;22.23;12.77;;;9.80;94.10;;;;;;5076522;28;20040;-53
2021/05/17 03:57:27;;;;;;;19.58;12.77;;;9.80;94.00;;;;;;5076014;28;20384;-49
2021/05/17 03:59:53;;;;;;;18.48;12.65;;;9.80;94.10;;;;;;5076003;28;20032;-52
2021/05/17 04:02:21;;;;;;;20.90;12.80;;;9.80;94.10;;;;;;5041000;28;20044;-49
2021/05/17 04:13:19;;;;;;;21.17;12.85;;;9.90;94.00;;;;;;5068932;28;20045;-53
2021/05/17 04:15:45;;;;;;;18.75;12.55;;;9.90;94.10;;;;;;5052798;28;20037;-52
2021/05/17 04:18:12;;;;;;;20.30;12.70;;;9.90;94.20;;;;;;5068447;28;20132;-53
2021/05/17 04:20:38;;;;;;;19.83;12.52;;;9.90;94.00;;;;;;5074592;28;20041;-53
2021/05/17 04:23:04;;;;;;;19.48;12.98;;;9.90;94.00;;;;;;5070568;28;20032;-52
2021/05/17 04:25:30;;;;;;;20.30;12.35;;;9.90;94.10;;;;;;5073108;28;20055;-54
2021/05/17 04:27:56;;;;;;;18.65;12.90;;;9.90;94.10;;;;;;5069790;28;20047;-53
2021/05/17 04:30:22;;;;;;;20.48;13.43;;;9.90;94.20;;;;;;5063717;28;20052;-52
2021/05/17 04:32:48;;;;;;;18.85;11.88;;;9.90;94.20;;;;;;5069465;28;20053;-55
2021/05/17 04:35:15;;;;;;;19.98;12.00;;;9.90;94.20;;;;;;5081488;28;20055;-55
2021/05/17 04:37:40;;;;;;;15.93;11.07;;;9.90;94.10;;;;;;5049966;28;20045;-53
2021/05/17 04:40:08;;;;;;;17.58;12.05;;;9.90;94.20;;;;;;5071478;28;20048;-54
2021/05/17 04:42:35;;;;;;;17.02;11.73;;;9.90;94.20;;;;;;5069440;28;20051;-53
2021/05/17 04:45:02;;;;;;;19.25;10.85;;;10.00;94.20;;;;;;5081699;28;20036;-54
2021/05/17 04:47:27;;;;;;;16.90;10.73;;;10.00;94.20;;;;;;5070482;28;20127;-52
2021/05/17 04:49:53;;;;;;;14.95;10.15;;;10.00;94.20;;;;;;5059308;28;20090;-53
2021/05/17 04:52:19;;;;;;;15.43;10.88;;;10.10;94.50;;;;;;5069436;28;20036;-54
2021/05/17 04:54:45;;;;;;;15.30;10.00;;;10.10;94.10;;;;;;5060765;28;20044;-53
2021/05/17 04:57:11;;;;;;;17.42;10.70;;;10.10;94.10;;;;;;5078185;28;20055;-52
2021/05/17 04:59:37;;;;;;;15.10;9.95;;;10.10;94.10;;;;;;5077788;28;20051;-52
2021/05/17 05:02:06;;;;;;;15.77;10.10;;;10.10;94.10;;;;;;5074750;28;20077;-52
2021/05/17 05:04:32;;;;;;;13.73;9.63;;;10.10;94.10;;;;;;5081604;28;20028;-54
2021/05/17 05:06:57;;;;;;;16.60;9.93;;;10.20;94.20;;;;;;5074778;28;20045;-55
2021/05/17 05:09:24;;;;;;;15.15;9.73;;;10.20;94.10;;;;;;5085380;28;20107;-54
2021/05/17 05:11:50;;;;;;;13.50;8.63;;;10.20;94.00;;;;;;5074678;28;20602;-51
2021/05/17 05:14:16;;;;;;;15.10;9.15;;;10.30;94.10;;;;;;5071735;28;20080;-51
2021/05/17 05:16:42;;;;;;;13.57;8.85;;;10.30;94.00;;;;;;5055693;28;20409;-53
2021/05/17 05:19:08;;;;;;;12.82;8.73;;;10.30;94.10;;;;;;5071686;28;20164;-56
2021/05/17 05:21:34;;;;;;;15.13;9.30;;;10.30;94.00;;;;;;5077669;28;20036;-53
2021/05/17 05:24:01;;;;;;;12.45;8.55;;;10.30;94.00;;;;;;5063468;28;20045;-53
2021/05/17 05:33:56;;;;;;;13.77;8.82;;;10.50;94.00;;;;;;5074188;28;19916;-54
2021/05/17 05:36:22;;;;;;;12.85;8.50;;;10.60;93.90;;;;;;5073190;28;20048;-54
2021/05/17 05:38:48;;;;;;;13.48;9.25;;;10.60;93.90;;;;;;5063043;28;20044;-51
2021/05/17 05:41:14;;;;;;;14.48;9.48;;;10.60;93.80;;;;;;5074670;28;20040;-55
2021/05/17 05:43:40;;;;;;;13.85;9.07;;;10.70;93.70;;;;;;5062322;28;20062;-53
2021/05/17 05:46:06;;;;;;;12.10;9.15;;;10.60;93.90;;;;;;5072138;28;20476;-50
2021/05/17 05:48:31;;;;;;;12.68;9.27;;;10.70;93.90;;;;;;5053961;28;20098;-54
2021/05/17 05:50:57;;;;;;;13.90;9.18;;;10.60;93.90;;;;;;5068287;28;20561;-53
2021/05/17 05:53:23;;;;;;;16.52;9.15;;;10.60;94.00;;;;;;5070552;28;20583;-53
2021/05/17 05:55:49;;;;;;;15.18;9.57;;;10.60;94.00;;;;;;5071086;28;20068;-54
2021/05/17 05:58:15;;;;;;;13.32;8.90;;;10.60;94.10;;;;;;5048017;28;20049;-51
2021/05/17 06:00:42;;;;;;;15.77;9.88;;;10.60;94.00;;;;;;5067400;28;20041;-54
2021/05/17 06:03:08;;;;;;;16.02;9.68;;;10.70;94.20;;;;;;5066691;28;20507;-53
2021/05/17 06:05:34;;;;;;;13.00;9.82;;;10.70;94.20;;;;;;5075879;28;20036;-52
2021/05/17 06:08:01;;;;;;;14.15;9.73;;;10.70;94.10;;;;;;5056554;28;20066;-53
2021/05/17 06:10:27;;;;;;;14.02;10.55;;;10.70;94.00;;;;;;5075289;28;20044;-53
2021/05/17 06:12:55;;;;;;;16.73;10.43;;;10.70;94.10;;;;;;5072747;28;20040;-52
2021/05/17 06:15:22;;;;;;;13.25;10.35;;;10.70;94.20;;;;;;5075223;28;20040;-56
2021/05/17 06:17:48;;;;;;;16.85;10.25;;;10.80;94.30;;;;;;5070594;28;20040;-51
2021/05/17 06:20:16;;;;;;;16.08;10.55;;;10.80;94.10;;;;;;5072887;28;20471;-50
2021/05/17 06:22:42;;;;;;;15.90;11.15;;;10.90;94.20;;;;;;5055911;28;20115;-55
2021/05/17 06:25:10;;;;;;;30.48;11.38;;;10.90;94.30;;;;;;5067692;28;20160;-55
2021/05/17 06:27:37;;;;;;;16.80;11.80;;;11.00;94.20;;;;;;5073251;28;20037;-54
2021/05/17 06:30:06;;;;;;;17.60;10.52;;;11.10;94.30;;;;;;5050617;28;20131;-55
2021/05/17 06:32:35;;;;;;;18.33;11.52;;;11.20;94.30;;;;;;5073480;28;20548;-52
2021/05/17 06:35:02;;;;;;;19.48;11.65;;;11.30;94.20;;;;;;5066001;28;20037;-55
2021/05/17 06:37:28;;;;;;;20.77;11.68;;;11.30;94.10;;;;;;5074254;28;20113;-51
2021/05/17 06:39:54;;;;;;;18.08;11.68;;;11.40;94.00;;;;;;5069884;28;20040;-52
2021/05/17 06:42:20;;;;;;;15.77;11.35;;;11.50;93.90;;;;;;5075159;28;20094;-55
2021/05/17 06:44:46;;;;;;;19.08;11.85;;;11.50;93.80;;;;;;5067453;28;20052;-53
2021/05/17 06:47:12;;;;;;;18.30;12.75;;;11.60;93.90;;;;;;5074742;28;20032;-53
2021/05/17 06:49:39;;;;;;;17.08;11.57;;;11.70;93.90;;;;;;5071646;28;20095;-53
2021/05/17 06:52:07;;;;;;;17.90;11.65;;;11.70;93.80;;;;;;5070902;28;20408;-51
2021/05/17 06:54:33;;;;;;;17.25;10.93;;;11.80;93.70;;;;;;5073023;28;20056;-50
2021/05/17 06:59:43;;;;;;;15.55;10.52;;;11.80;93.60;;;;;;5067394;28;20385;-53
2021/05/17 07:02:16;;;;;;;15.68;11.00;;;11.80;93.50;;;;;;5081844;28;20462;-53
2021/05/17 07:04:44;;;;;;;14.82;9.98;;;11.90;93.50;;;;;;5079143;28;20034;-54
2021/05/17 07:07:10;;;;;;;14.35;9.85;;;11.90;93.50;;;;;;5059767;28;20102;-53
2021/05/17 07:12:20;;;;;;;14.60;10.15;;;11.90;93.40;;;;;;5070785;28;20113;-54
2021/05/17 07:14:45;;;;;;;14.35;9.95;;;12.00;93.40;;;;;;5070284;28;20056;-53
2021/05/17 07:17:11;;;;;;;14.45;9.15;;;12.00;93.40;;;;;;5081744;28;20472;-55
2021/05/17 07:19:37;;;;;;;12.32;9.02;;;12.00;93.40;;;;;;5053046;28;20044;-53
2021/05/17 07:24:48;;;;;;;12.13;8.27;;;12.10;93.20;;;;;;5071916;28;20047;-55
2021/05/17 07:27:14;;;;;;;14.45;8.95;;;12.20;92.90;;;;;;5080520;28;20048;-54
2021/05/17 07:29:40;;;;;;;12.20;8.73;;;12.20;92.90;;;;;;5058236;28;20064;-53
2021/05/17 07:32:08;;;;;;;13.73;8.88;;;12.20;92.90;;;;;;5080951;28;20032;-54
2021/05/17 07:34:36;;;;;;;16.83;9.63;;;12.30;92.90;;;;;;5072325;28;20107;-53
2021/05/17 07:37:03;;;;;;;14.82;8.25;;;12.30;93.00;;;;;;5070671;28;20032;-55
2021/05/17 07:39:29;;;;;;;14.80;7.72;;;12.30;93.00;;;;;;5073313;28;20074;-53
2021/05/17 07:41:55;;;;;;;13.80;8.13;;;12.40;92.80;;;;;;5052201;28;20409;-54
2021/05/17 07:44:21;;;;;;;11.82;7.50;;;12.50;92.70;;;;;;5064604;28;20044;-57
2021/05/17 07:46:48;;;;;;;13.30;8.13;;;12.50;92.70;;;;;;5072052;28;20044;-52
2021/05/17 07:49:22;;;;;;;13.35;7.57;;;12.50;92.60;;;;;;5073412;28;20051;-53
2021/05/17 07:51:47;;;;;;;11.45;7.28;;;12.50;92.10;;;;;;5071802;28;20443;-54
2021/05/17 07:54:18;;;;;;;11.93;7.25;;;12.50;91.80;;;;;;5054015;28;20071;-52
2021/05/17 07:56:44;;;;;;;10.48;6.68;;;12.40;91.80;;;;;;5071641;28;20041;-54
2021/05/17 07:59:10;;;;;;;9.77;7.18;;;12.50;91.70;;;;;;5081234;28;20106;-54
2021/05/17 08:01:35;;;;;;;9.27;7.40;;;12.50;92.00;;;;;;5033950;28;20052;-56
2021/05/17 08:04:01;;;;;;;9.73;6.70;;;12.50;92.00;;;;;;5070831;28;20039;-54
2021/05/17 08:06:27;;;;;;;10.15;6.65;;;12.60;92.10;;;;;;5071285;28;20036;-52
2021/05/17 08:08:53;;;;;;;10.95;7.10;;;12.70;91.90;;;;;;5072575;28;20428;-54
2021/05/17 08:11:20;;;;;;;9.48;6.43;;;12.70;91.90;;;;;;5071176;28;20141;-55
2021/05/17 08:13:46;;;;;;;8.35;6.72;;;12.80;91.80;;;;;;5057254;28;20037;-54
2021/05/17 08:16:14;;;;;;;10.27;6.32;;;12.90;91.50;;;;;;5056212;28;20037;-54
2021/05/17 08:18:41;;;;;;;11.38;6.57;;;12.90;91.40;;;;;;5036334;28;20489;-53
2021/05/17 08:21:07;;;;;;;10.05;6.97;;;13.00;91.20;;;;;;5068435;28;20045;-54
2021/05/17 08:23:33;;;;;;;10.00;6.55;;;13.00;91.40;;;;;;5074646;28;20036;-52
2021/05/17 08:25:59;;;;;;;12.38;7.07;;;13.00;91.40;;;;;;5071939;28;20393;-54
2021/05/17 08:28:25;;;;;;;8.52;6.63;;;13.00;91.60;;;;;;5064975;28;20047;-55
2021/05/17 08:30:58;;;;;;;9.07;6.50;;;13.00;91.60;;;;;;5066416;28;20194;-52
2021/05/17 08:33:24;;;;;;;10.40;6.68;;;13.00;91.70;;;;;;5065540;28;20036;-51
2021/05/17 08:35:50;;;;;;;9.38;5.93;;;13.00;91.80;;;;;;5069299;28;20036;-53
2021/05/17 08:38:17;;;;;;;11.68;6.40;;;13.00;91.70;;;;;;5070496;28;20532;-56
2021/05/17 08:40:46;;;;;;;15.77;6.75;;;13.00;91.60;;;;;;5051080;28;20091;-56
2021/05/17 08:43:12;;;;;;;14.00;7.28;;;13.00;91.60;;;;;;5068493;28;20039;-56
2021/05/17 08:45:39;;;;;;;8.82;6.25;;;13.00;91.70;;;;;;5056422;28;20039;-56
2021/05/17 08:48:06;;;;;;;10.50;5.47;;;13.10;91.80;;;;;;5066147;28;20473;-57
2021/05/17 08:50:33;;;;;;;9.10;6.75;;;13.10;91.20;;;;;;5046744;28;20118;-56
2021/05/17 08:52:59;;;;;;;7.88;5.82;;;13.30;91.40;;;;;;5048663;28;20098;-56
2021/05/17 08:55:31;;;;;;;8.20;5.88;;;13.60;91.20;;;;;;5069791;28;20451;-56
2021/05/17 08:57:57;;;;;;;8.98;5.97;;;13.70;90.70;;;;;;5053534;28;20485;-56
2021/05/17 09:00:23;;;;;;;13.32;6.00;;;13.80;90.40;;;;;;5070592;28;20497;-54
2021/05/17 09:02:51;;;;;;;11.77;6.40;;;13.80;90.10;;;;;;5069433;28;20554;-56
2021/05/17 09:05:26;;;;;;;7.78;5.68;;;13.70;90.40;;;;;;5052814;28;20072;-56
2021/05/17 09:07:54;;;;;;;8.48;5.20;;;13.70;90.50;;;;;;5065180;28;20048;-57
2021/05/17 09:10:24;;;;;;;7.75;5.50;;;13.70;90.40;;;;;;5053106;28;20119;-56
2021/05/17 09:13:14;;;;;;;6.63;4.40;;;13.60;90.00;;;;;;5064278;28;20052;-56
2021/05/17 09:15:50;;;;;;;8.40;5.20;;;13.50;88.50;;;;;;5042485;28;20057;-56
2021/05/17 09:18:21;;;;;;;5.47;4.57;;;13.40;89.40;;;;;;5060604;28;20114;-57
2021/05/17 09:20:50;;;;;;;8.05;5.40;;;13.40;90.00;;;;;;5050869;28;20086;-56
2021/05/17 09:23:34;;;;;;;9.05;6.32;;;13.30;89.70;;;;;;5067608;28;20047;-57
2021/05/17 09:26:07;;;;;;;7.25;5.50;;;13.30;90.10;;;;;;5047825;28;20456;-56
2021/05/17 09:28:36;;;;;;;8.07;5.50;;;13.20;90.50;;;;;;5062615;28;20416;-56
2021/05/17 09:31:23;;;;;;;9.35;5.72;;;13.10;90.70;;;;;;5067890;28;20106;-55
2021/05/17 09:33:55;;;;;;;13.30;7.28;;;13.00;90.90;;;;;;5057385;28;20052;-56
2021/05/17 09:36:41;;;;;;;7.60;5.90;;;12.90;91.10;;;;;;5069117;28;20050;-57
2021/05/17 09:39:10;;;;;;;10.05;6.72;;;12.80;91.20;;;;;;5030349;28;20315;-55
2021/05/17 09:41:56;;;;;;;8.55;6.22;;;12.70;91.40;;;;;;5056752;28;20048;-56
2021/05/17 09:44:22;;;;;;;9.88;6.53;;;12.60;91.70;;;;;;5058440;28;20187;-54
2021/05/17 09:47:05;;;;;;;10.68;6.63;;;12.50;91.80;;;;;;5067511;28;20094;-55
2021/05/17 09:49:49;;;;;;;11.48;6.93;;;12.50;92.20;;;;;;5072546;28;20043;-54
2021/05/17 09:52:19;;;;;;;8.45;4.28;;;12.60;92.30;;;;;;5066610;28;20067;-55
2021/05/17 09:55:11;;;;;;;17.85;3.47;;;12.60;92.40;;;;;;5076543;28;20040;-55
2021/05/17 09:57:41;;;;;;;6.25;3.60;;;12.70;92.50;;;;;;5050912;28;20039;-55
2021/05/17 10:00:25;;;;;;;6.15;4.03;;;12.90;92.60;;;;;;5070803;28;20390;-55
2021/05/17 10:02:55;;;;;;;5.65;3.40;;;13.00;92.60;;;;;;5075038;28;20484;-55
2021/05/17 10:05:22;;;;;;;6.10;3.50;;;13.10;92.20;;;;;;5070539;28;20097;-57
2021/05/17 10:07:56;;;;;;;5.53;3.22;;;13.20;92.00;;;;;;5072871;28;20092;-56
2021/05/17 10:10:23;;;;;;;6.32;3.90;;;13.30;92.00;;;;;;5051277;28;20298;-56
2021/05/17 10:12:53;;;;;;;5.68;3.90;;;13.30;92.00;;;;;;5062938;28;20113;-53
2021/05/17 10:15:20;;;;;;;6.80;4.22;;;13.40;92.00;;;;;;5068926;28;20040;-52
2021/05/17 10:17:46;;;;;;;7.63;4.60;;;13.40;92.10;;;;;;5067153;28;20037;-54
2021/05/17 10:20:17;;;;;;;7.82;5.22;;;13.30;92.00;;;;;;5071641;28;20278;-52
2021/05/17 10:22:44;;;;;;;4.38;3.30;;;13.30;92.20;;;;;;5071464;28;20465;-54
2021/05/17 10:25:12;;;;;;;4.32;2.85;;;13.30;92.20;;;;;;5071879;28;20075;-53
2021/05/17 10:27:46;;;;;;;5.40;3.40;;;13.20;92.30;;;;;;5071099;28;20408;-53
2021/05/17 10:30:14;;;;;;;5.10;3.58;;;13.10;92.40;;;;;;5067673;28;20044;-53
2021/05/17 10:32:46;;;;;;;5.95;3.33;;;13.00;92.10;;;;;;5036712;28;20066;-53
2021/05/17 10:35:14;;;;;;;;;;;13.00;92.20;;;;;;5051774;28;20037;-53
2021/05/17 10:37:44;;;;;;;6.25;3.30;;;12.90;92.40;;;;;;5066360;28;19916;-53
2021/05/17 10:40:15;;;;;;;5.45;4.07;;;12.80;92.60;;;;;;5069877;28;20036;-50
2021/05/17 10:42:56;;;;;;;6.03;4.40;;;12.90;92.60;;;;;;5071641;28;20397;-54
2021/05/17 10:48:21;;;;;;;6.63;4.45;;;13.60;93.50;;;;;;5065597;28;20401;-53
2021/05/17 10:50:53;;;;;;;7.93;5.00;;;13.90;92.80;;;;;;5065977;28;20485;-54
2021/05/17 10:53:46;;;;;;;6.07;4.43;;;14.20;92.00;;;;;;5066460;28;20721;-50
2021/05/17 10:56:15;;;;;;;7.65;4.22;;;14.30;91.30;;;;;;5060542;28;20283;-53
2021/05/17 11:01:51;;;;;;;7.97;5.85;;;14.60;90.60;;;;;;5044912;28;20040;-54
2021/05/17 11:04:23;;;;;;;8.60;5.00;;;14.60;90.70;;;;;;5068150;28;20039;-54
2021/05/17 11:07:12;;;;;;;8.18;5.55;;;14.60;90.30;;;;;;5037830;28;20048;-52
2021/05/17 11:09:52;;;;;;;9.00;5.68;;;14.60;90.80;;;;;;5070937;28;20098;-52
2021/05/17 11:12:26;;;;;;;9.20;5.78;;;14.60;91.00;;;;;;5066035;28;20048;-55
2021/05/17 11:15:07;;;;;;;10.38;5.45;;;14.60;90.70;;;;;;5065725;28;20043;-54
2021/05/17 11:17:51;;;;;;;9.45;5.78;;;14.80;90.90;;;;;;5069748;28;20036;-54
2021/05/17 11:20:49;;;;;;;7.22;5.78;;;14.90;90.30;;;;;;5065882;28;20065;-53
2021/05/17 11:23:17;;;;;;;6.72;5.05;;;14.80;90.70;;;;;;5056013;28;20024;-54
2021/05/17 11:26:00;;;;;;;8.52;5.05;;;14.80;90.60;;;;;;5053052;28;20037;-54
2021/05/17 11:28:38;;;;;;;8.43;5.40;;;14.70;89.40;;;;;;5073595;28;20037;-54
2021/05/17 11:31:22;;;;;;;6.20;4.50;;;14.60;90.10;;;;;;5049023;28;20044;-55
2021/05/17 11:34:01;;;;;;;7.60;5.70;;;14.50;90.00;;;;;;5050092;28;20437;-52
2021/05/17 11:36:32;;;;;;;6.45;5.03;;;14.40;90.10;;;;;;5069809;28;20631;-51
2021/05/17 11:39:10;;;;;;;10.00;6.45;;;14.30;90.40;;;;;;5071831;28;21184;-54
2021/05/17 11:41:45;;;;;;;6.28;4.43;;;14.10;90.70;;;;;;5065288;28;20154;-54
2021/05/17 11:44:39;;;;;;;6.10;4.68;;;14.00;90.70;;;;;;5066881;28;20048;-53
2021/05/17 11:47:34;;;;;;;5.15;3.45;;;13.70;90.60;;;;;;5065510;28;20044;-53
2021/05/17 11:50:02;;;;;;;5.10;3.95;;;13.60;91.00;;;;;;5066786;28;20052;-55
2021/05/17 11:52:30;;;;;;;6.25;3.50;;;13.50;90.90;;;;;;5072819;28;20046;-53
2021/05/17 11:54:58;;;;;;;5.88;4.57;;;13.40;90.90;;;;;;5077060;28;20044;-53
2021/05/17 11:57:30;;;;;;;7.80;5.18;;;13.40;91.50;;;;;;5065227;28;20048;-54
2021/05/17 12:00:06;;;;;;;7.85;5.18;;;13.40;91.70;;;;;;5063573;28;20048;-54
2021/05/17 12:02:32;;;;;;;6.22;5.35;;;13.40;91.70;;;;;;5045367;28;20082;-52
2021/05/17 12:04:59;;;;;;;9.05;5.10;;;13.50;91.80;;;;;;5064456;28;20076;-54
2021/05/17 12:07:25;;;;;;;7.30;5.80;;;13.50;91.90;;;;;;5076399;28;20063;-53
2021/05/17 12:09:55;;;;;;;6.47;4.75;;;13.40;92.00;;;;;;5079875;28;20471;-55
2021/05/17 12:12:22;;;;;;;3.78;2.92;;;13.40;92.00;;;;;;5054015;28;20093;-55
2021/05/17 12:14:48;;;;;;;5.63;2.88;;;13.30;90.80;;;;;;5074610;28;20054;-55
2021/05/17 12:17:19;;;;;;;5.18;3.50;;;13.20;91.10;;;;;;5061292;28;20106;-53
2021/05/17 12:19:50;;;;;;;4.25;3.05;;;13.20;91.10;;;;;;5073785;28;20416;-54
2021/05/17 12:22:25;;;;;;;3.77;2.67;;;13.00;91.10;;;;;;5056303;28;20047;-53
2021/05/17 12:25:03;;;;;;;10.13;2.50;;;12.90;90.60;;;;;;5069756;28;20113;-54
2021/05/17 12:27:29;;;;;;;3.13;2.40;;;12.80;90.50;;;;;;5035989;28;20048;-52
2021/05/17 12:30:10;;;;;;;3.15;2.45;;;12.60;90.70;;;;;;5077346;28;20127;-52
2021/05/17 12:32:41;;;;;;;5.75;2.83;;;12.50;91.00;;;;;;5069960;28;20154;-54
2021/05/17 12:35:14;;;;;;;4.43;3.15;;;12.50;91.30;;;;;;5070486;28;20067;-54
2021/05/17 12:37:45;;;;;;;4.50;3.28;;;12.50;91.80;;;;;;5070271;28;20488;-53
2021/05/17 12:40:19;;;;;;;4.47;3.25;;;12.50;91.90;;;;;;5070300;28;20051;-52
2021/05/17 12:42:57;;;;;;;7.57;3.25;;;12.50;92.10;;;;;;5036968;28;20445;-54
2021/05/17 12:45:23;;;;;;;4.07;3.13;;;12.50;92.10;;;;;;5047991;28;20037;-52
2021/05/17 12:47:49;;;;;;;4.68;3.38;;;12.60;92.20;;;;;;5051240;28;20398;-54
2021/05/17 12:50:23;;;;;;;6.60;4.07;;;12.60;91.90;;;;;;5070425;28;20497;-56
2021/05/17 12:53:01;;;;;;;7.50;3.80;;;12.70;92.40;;;;;;5049669;28;20044;-54
2021/05/17 12:55:27;;;;;;;6.45;4.30;;;12.80;92.00;;;;;;5071743;28;20561;-54
2021/05/17 12:57:55;;;;;;;6.70;4.40;;;12.90;91.80;;;;;;5071403;28;20139;-56
2021/05/17 13:00:47;;;;;;;6.43;4.63;;;13.20;91.90;;;;;;5072084;28;20540;-54
2021/05/17 13:03:16;;;;;;;5.82;4.60;;;13.40;92.10;;;;;;5061920;28;20052;-55
2021/05/17 13:05:56;;;;;;;6.07;4.38;;;13.60;91.70;;;;;;5072434;28;20191;-53
2021/05/17 13:08:28;;;;;;;6.53;5.45;;;13.80;91.30;;;;;;5052550;28;20052;-54
2021/05/17 13:11:01;;;;;;;;;;;14.00;91.50;;;;;;5074825;28;20059;-56
2021/05/17 13:13:45;;;;;;;6.72;4.68;;;14.30;90.60;;;;;;5069633;28;20073;-50
2021/05/17 13:16:19;;;;;;;5.38;4.07;;;14.40;89.60;;;;;;5053472;28;20028;-51
2021/05/17 13:31:00;;;;;;;6.07;3.38;;;14.30;88.60;;;;;;5051200;28;20488;-54
2021/05/17 13:33:34;;;;;;;5.75;3.70;;;14.20;89.30;;;;;;5068323;28;20484;-53
2021/05/17 13:36:03;;;;;;;5.40;3.80;;;14.20;89.80;;;;;;5055040;28;20497;-55